Processing data for WRCC monitor ID sm11 at 2026-08-31 00:14:15 UTC

Download data …

DEBUG [2026-08-31 00:14:15]  ----- wrcc_downloadData() ----- 
TRACE [2026-08-31 00:14:15] Downloading WRCC data for unitID sm11 ...

Parse, QC and Cluster …

DEBUG [2026-08-31 00:14:16]  ----- wrcc_parseData() ----- 
DEBUG [2026-08-31 00:14:16]  ----- wrcc_identifyDataFormat() ----- 
DEBUG [2026-08-31 00:14:17]  ----- addClustering() ----- 
DEBUG [2026-08-31 00:14:17]  ----- wrcc_qualityControl() ----- 
TRACE [2026-08-31 00:14:17] Applying ESAM QC rules ...
DEBUG [2026-08-31 00:14:17]  ----- wrcc_ESAMQualityControl() ----- 
TRACE [2026-08-31 00:14:17] Flow has 1 missing or out of range values
TRACE [2026-08-31 00:14:17] Bad Flow values:  1.8
TRACE [2026-08-31 00:14:17] AT has 0 missing or out of range values
TRACE [2026-08-31 00:14:17] RHi has 0 missing or out of range values
TRACE [2026-08-31 00:14:17] Conc has 0 missing or out of range values
TRACE [2026-08-31 00:14:17] datetime has 0 missing or out of range values
TRACE [2026-08-31 00:14:17] Flagging 1 rows because of QC logic
TRACE [2026-08-31 00:14:17] Retaining 143 rows of measurements; 1 bad rows flagged

QC’d data with Flags

DateTime,GPSLat,GPSLon,Type,SerialNumber,ConcRT,Misc1,AvAirFlw,AvAirTemp,RelHumidity,BaromPress,SensorIntAT,SensorIntRH,WindSpeed,WindDir,BatteryVoltage,CO,monitorName,monitorType,QCFlag_anyBad,QCFlag_reasonCode,QCFlag_badLon,QCFlag_badLat,QCFlag_badType,QCFlag_badFlow,QCFlag_badAT,QCFlag_badRHi,QCFlag_badConcHr,QCFlag_badDateAndTime,QCFlag_duplicateHr,datetime,clusterLon,clusterLat,clusterID
2608250000,47.838596,-120.01577,9,10764,12,NA,2,31.6,35,974.7,NA,19,1.4,325,14.4,0,Smoke RMK 112 (Smoke #11),ESAM,FALSE,NA,FALSE,FALSE,FALSE,FALSE,FALSE,FALSE,FALSE,FALSE,FALSE,2026-08-25T00:00:00Z,-120.015762,47.838551,1
2608250100,47.838596,-120.01577,9,10764,13,NA,2,30.7,40,974.3,NA,22,1.4,326,14.4,0,Smoke RMK 112 (Smoke #11),ESAM,FALSE,NA,FALSE,FALSE,FALSE,FALSE,FALSE,FALSE,FALSE,FALSE,FALSE,2026-08-25T01:00:00Z,-120.015762,47.838551,1
2608250200,47.838596,-120.01577,9,10764,12,NA,2,29.7,42,974.2,NA,26,1.1,331,14.4,0,Smoke RMK 112 (Smoke #11),ESAM,FALSE,NA,FALSE,FALSE,FALSE,FALSE,FALSE,FALSE,FALSE,FALSE,FALSE,2026-08-25T02:00:00Z,-120.015762,47.838551,1
2608250300,47.838596,-120.01577,9,10764,12,NA,2,29.2,37,973.9,NA,26,0.9,332,14.4,0,Smoke RMK 112 (Smoke #11),ESAM,FALSE,NA,FALSE,FALSE,FALSE,FALSE,FALSE,FALSE,FALSE,FALSE,FALSE,2026-08-25T03:00:00Z,-120.015762,47.838551,1
2608250400,47.838596,-120.01577,9,10764,11,NA,2,27.5,38,974.5,NA,29,0.5,336,14.4,0,Smoke RMK 112 (Smoke #11),ESAM,FALSE,NA,FALSE,FALSE,FALSE,FALSE,FALSE,FALSE,FALSE,FALSE,FALSE,2026-08-25T04:00:00Z,-120.015762,47.838551,1
2608250500,47.838596,-120.01577,9,10764,10,NA,2,25.4,47,974.9,NA,37,0.8,332,14.4,0,Smoke RMK 112 (Smoke #11),ESAM,FALSE,NA,FALSE,FALSE,FALSE,FALSE,FALSE,FALSE,FALSE,FALSE,FALSE,2026-08-25T05:00:00Z,-120.015762,47.838551,1
2608250600,47.838596,-120.01577,9,10764,9,NA,2,24.4,53,975,NA,44,0.7,342,14.4,0,Smoke RMK 112 (Smoke #11),ESAM,FALSE,NA,FALSE,FALSE,FALSE,FALSE,FALSE,FALSE,FALSE,FALSE,FALSE,2026-08-25T06:00:00Z,-120.015762,47.838551,1
2608250700,47.838596,-120.01577,9,10764,9,NA,2,23.1,51,975.1,NA,43,0.5,39,14.4,0,Smoke RMK 112 (Smoke #11),ESAM,FALSE,NA,FALSE,FALSE,FALSE,FALSE,FALSE,FALSE,FALSE,FALSE,FALSE,2026-08-25T07:00:00Z,-120.015762,47.838551,1
2608250800,47.838596,-120.01577,9,10764,9,NA,2,21.6,50,975.5,NA,41,0.4,171,14.4,0,Smoke RMK 112 (Smoke #11),ESAM,FALSE,NA,FALSE,FALSE,FALSE,FALSE,FALSE,FALSE,FALSE,FALSE,FALSE,2026-08-25T08:00:00Z,-120.015762,47.838551,1
2608250900,47.838596,-120.01577,9,10764,9,NA,2,20.4,53,975.8,NA,44,0.3,322,14.4,0,Smoke RMK 112 (Smoke #11),ESAM,FALSE,NA,FALSE,FALSE,FALSE,FALSE,FALSE,FALSE,FALSE,FALSE,FALSE,2026-08-25T09:00:00Z,-120.015762,47.838551,1
2608251000,47.838596,-120.01577,9,10764,9,NA,2,19.7,57,976.1,NA,48,0.3,263,14.4,0,Smoke RMK 112 (Smoke #11),ESAM,FALSE,NA,FALSE,FALSE,FALSE,FALSE,FALSE,FALSE,FALSE,FALSE,FALSE,2026-08-25T10:00:00Z,-120.015762,47.838551,1
2608251100,47.838596,-120.01577,9,10764,9,NA,2,18.9,60,976.1,NA,46,0.3,273,14.4,0,Smoke RMK 112 (Smoke #11),ESAM,FALSE,NA,FALSE,FALSE,FALSE,FALSE,FALSE,FALSE,FALSE,FALSE,FALSE,2026-08-25T11:00:00Z,-120.015762,47.838551,1
2608251200,47.838596,-120.01577,9,10764,9,NA,2,18,63,976.3,NA,47,0.3,336,14.4,0,Smoke RMK 112 (Smoke #11),ESAM,FALSE,NA,FALSE,FALSE,FALSE,FALSE,FALSE,FALSE,FALSE,FALSE,FALSE,2026-08-25T12:00:00Z,-120.015762,47.838551,1
2608251300,47.838531,-120.01577,9,10764,10,NA,2,17.4,62,976.6,NA,47,0.4,318,14.4,0,Smoke RMK 112 (Smoke #11),ESAM,FALSE,NA,FALSE,FALSE,FALSE,FALSE,FALSE,FALSE,FALSE,FALSE,FALSE,2026-08-25T13:00:00Z,-120.015762,47.838551,1
2608251400,47.838531,-120.01577,9,10764,12,NA,2,17.3,64,977.1,NA,48,0.3,274,14.3,0,Smoke RMK 112 (Smoke #11),ESAM,FALSE,NA,FALSE,FALSE,FALSE,FALSE,FALSE,FALSE,FALSE,FALSE,FALSE,2026-08-25T14:00:00Z,-120.015762,47.838551,1
2608251500,47.838531,-120.01577,9,10764,16,NA,2,18.9,60,977.4,NA,47,0.5,317,14.3,0,Smoke RMK 112 (Smoke #11),ESAM,FALSE,NA,FALSE,FALSE,FALSE,FALSE,FALSE,FALSE,FALSE,FALSE,FALSE,2026-08-25T15:00:00Z,-120.015762,47.838551,1
2608251600,47.838531,-120.01577,9,10764,19,NA,2,23.4,54,977.4,NA,43,0.5,179,14.4,0,Smoke RMK 112 (Smoke #11),ESAM,FALSE,NA,FALSE,FALSE,FALSE,FALSE,FALSE,FALSE,FALSE,FALSE,FALSE,2026-08-25T16:00:00Z,-120.015762,47.838551,1
2608251700,47.838531,-120.01577,9,10764,20,NA,2,26.6,41,977.1,NA,29,0.6,301,14.4,0,Smoke RMK 112 (Smoke #11),ESAM,FALSE,NA,FALSE,FALSE,FALSE,FALSE,FALSE,FALSE,FALSE,FALSE,FALSE,2026-08-25T17:00:00Z,-120.015762,47.838551,1
2608251800,47.838531,-120.01577,9,10764,23,NA,2,26,46,976.7,NA,29,1.2,330,14.4,0,Smoke RMK 112 (Smoke #11),ESAM,FALSE,NA,FALSE,FALSE,FALSE,FALSE,FALSE,FALSE,FALSE,FALSE,FALSE,2026-08-25T18:00:00Z,-120.015762,47.838551,1
2608251900,47.838531,-120.01577,9,10764,23,NA,2,27.2,42,975.8,NA,27,1.1,326,14.4,0,Smoke RMK 112 (Smoke #11),ESAM,FALSE,NA,FALSE,FALSE,FALSE,FALSE,FALSE,FALSE,FALSE,FALSE,FALSE,2026-08-25T19:00:00Z,-120.015762,47.838551,1
2608252000,47.838531,-120.01577,9,10764,21,NA,2,28.7,38,975,NA,25,1.2,323,14.4,0,Smoke RMK 112 (Smoke #11),ESAM,FALSE,NA,FALSE,FALSE,FALSE,FALSE,FALSE,FALSE,FALSE,FALSE,FALSE,2026-08-25T20:00:00Z,-120.015762,47.838551,1
2608252100,47.838531,-120.01577,9,10764,16,NA,2,30.5,35,974.3,NA,21,1.4,320,14.4,0,Smoke RMK 112 (Smoke #11),ESAM,FALSE,NA,FALSE,FALSE,FALSE,FALSE,FALSE,FALSE,FALSE,FALSE,FALSE,2026-08-25T21:00:00Z,-120.015762,47.838551,1
2608252200,47.838531,-120.01577,9,10764,16,NA,2,30.9,37,973.8,NA,22,1.4,324,14.4,0,Smoke RMK 112 (Smoke #11),ESAM,FALSE,NA,FALSE,FALSE,FALSE,FALSE,FALSE,FALSE,FALSE,FALSE,FALSE,2026-08-25T22:00:00Z,-120.015762,47.838551,1
2608252300,47.838531,-120.01577,9,10764,9,NA,2,32.4,35,973,NA,20,1.5,331,14.4,0,Smoke RMK 112 (Smoke #11),ESAM,FALSE,NA,FALSE,FALSE,FALSE,FALSE,FALSE,FALSE,FALSE,FALSE,FALSE,2026-08-25T23:00:00Z,-120.015762,47.838551,1
2608260000,47.838531,-120.01577,9,10764,7,NA,2,34.2,29,972.5,NA,17,1.1,345,14.4,0.1,Smoke RMK 112 (Smoke #11),ESAM,FALSE,NA,FALSE,FALSE,FALSE,FALSE,FALSE,FALSE,FALSE,FALSE,FALSE,2026-08-26T00:00:00Z,-120.015762,47.838551,1
2608260100,47.838531,-120.01577,9,10764,8,NA,2,34.6,29,972.1,NA,16,1.1,340,14.5,0.5,Smoke RMK 112 (Smoke #11),ESAM,FALSE,NA,FALSE,FALSE,FALSE,FALSE,FALSE,FALSE,FALSE,FALSE,FALSE,2026-08-26T01:00:00Z,-120.015762,47.838551,1
2608260200,47.838531,-120.01577,9,10764,10,NA,2,32.9,32,971.7,NA,18,1,320,14.4,0,Smoke RMK 112 (Smoke #11),ESAM,FALSE,NA,FALSE,FALSE,FALSE,FALSE,FALSE,FALSE,FALSE,FALSE,FALSE,2026-08-26T02:00:00Z,-120.015762,47.838551,1
2608260300,47.838531,-120.01577,9,10764,9,NA,2,30.9,35,971.5,NA,22,0.7,311,14.4,0,Smoke RMK 112 (Smoke #11),ESAM,FALSE,NA,FALSE,FALSE,FALSE,FALSE,FALSE,FALSE,FALSE,FALSE,FALSE,2026-08-26T03:00:00Z,-120.015762,47.838551,1
2608260400,47.838531,-120.01577,9,10764,10,NA,2,28.1,50,972.1,NA,37,0.7,320,14.4,0,Smoke RMK 112 (Smoke #11),ESAM,FALSE,NA,FALSE,FALSE,FALSE,FALSE,FALSE,FALSE,FALSE,FALSE,FALSE,2026-08-26T04:00:00Z,-120.015762,47.838551,1
2608260500,47.838531,-120.01577,9,10764,9,NA,2,26.5,54,972.3,NA,43,0.9,320,14.4,0,Smoke RMK 112 (Smoke #11),ESAM,FALSE,NA,FALSE,FALSE,FALSE,FALSE,FALSE,FALSE,FALSE,FALSE,FALSE,2026-08-26T05:00:00Z,-120.015762,47.838551,1
2608260600,47.838531,-120.01577,9,10764,8,NA,2,25.5,57,972.6,NA,46,0.8,329,14.4,0,Smoke RMK 112 (Smoke #11),ESAM,FALSE,NA,FALSE,FALSE,FALSE,FALSE,FALSE,FALSE,FALSE,FALSE,FALSE,2026-08-26T06:00:00Z,-120.015762,47.838551,1
2608260700,47.838531,-120.01577,9,10764,9,NA,2,24.9,53,972.6,NA,42,0.8,331,14.4,0,Smoke RMK 112 (Smoke #11),ESAM,FALSE,NA,FALSE,FALSE,FALSE,FALSE,FALSE,FALSE,FALSE,FALSE,FALSE,2026-08-26T07:00:00Z,-120.015762,47.838551,1
2608260800,47.838531,-120.01577,9,10764,13,NA,2,24.3,52,972.3,NA,42,0.7,324,14.4,0,Smoke RMK 112 (Smoke #11),ESAM,FALSE,NA,FALSE,FALSE,FALSE,FALSE,FALSE,FALSE,FALSE,FALSE,FALSE,2026-08-26T08:00:00Z,-120.015762,47.838551,1
2608260900,47.838531,-120.01577,9,10764,17,NA,2,23.1,48,972.9,NA,40,0.5,16,14.4,0,Smoke RMK 112 (Smoke #11),ESAM,FALSE,NA,FALSE,FALSE,FALSE,FALSE,FALSE,FALSE,FALSE,FALSE,FALSE,2026-08-26T09:00:00Z,-120.015762,47.838551,1
2608261000,47.838531,-120.01577,9,10764,20,NA,2,22.1,48,973,NA,40,0.4,310,14.4,0,Smoke RMK 112 (Smoke #11),ESAM,FALSE,NA,FALSE,FALSE,FALSE,FALSE,FALSE,FALSE,FALSE,FALSE,FALSE,2026-08-26T10:00:00Z,-120.015762,47.838551,1
2608261100,47.838531,-120.01577,9,10764,25,NA,2,21.5,58,973.1,NA,47,0.5,16,14.4,0,Smoke RMK 112 (Smoke #11),ESAM,FALSE,NA,FALSE,FALSE,FALSE,FALSE,FALSE,FALSE,FALSE,FALSE,FALSE,2026-08-26T11:00:00Z,-120.015762,47.838551,1
2608261200,47.838531,-120.01577,9,10764,29,NA,2,20.7,61,973,NA,47,0.5,78,14.4,0,Smoke RMK 112 (Smoke #11),ESAM,FALSE,NA,FALSE,FALSE,FALSE,FALSE,FALSE,FALSE,FALSE,FALSE,FALSE,2026-08-26T12:00:00Z,-120.015762,47.838551,1
2608261300,47.838554,-120.015739,9,10764,32,NA,2,20.5,59,973.1,NA,47,0.7,96,14.4,0,Smoke RMK 112 (Smoke #11),ESAM,FALSE,NA,FALSE,FALSE,FALSE,FALSE,FALSE,FALSE,FALSE,FALSE,FALSE,2026-08-26T13:00:00Z,-120.015762,47.838551,1
2608261400,47.838554,-120.015739,9,10764,31,NA,2,20.1,59,973.4,NA,47,0.5,104,14.4,0,Smoke RMK 112 (Smoke #11),ESAM,FALSE,NA,FALSE,FALSE,FALSE,FALSE,FALSE,FALSE,FALSE,FALSE,FALSE,2026-08-26T14:00:00Z,-120.015762,47.838551,1
2608261500,47.838554,-120.015739,9,10764,26,NA,2,21.6,53,973.7,NA,46,0.7,98,14.4,0,Smoke RMK 112 (Smoke #11),ESAM,FALSE,NA,FALSE,FALSE,FALSE,FALSE,FALSE,FALSE,FALSE,FALSE,FALSE,2026-08-26T15:00:00Z,-120.015762,47.838551,1
2608261600,47.838554,-120.015739,9,10764,18,NA,2,24.5,43,973.7,NA,38,0.7,85,14.4,0,Smoke RMK 112 (Smoke #11),ESAM,FALSE,NA,FALSE,FALSE,FALSE,FALSE,FALSE,FALSE,FALSE,FALSE,FALSE,2026-08-26T16:00:00Z,-120.015762,47.838551,1
2608261700,47.838554,-120.015739,9,10764,36,NA,2,27.1,39,973.3,NA,29,0.7,0,14.4,0,Smoke RMK 112 (Smoke #11),ESAM,FALSE,NA,FALSE,FALSE,FALSE,FALSE,FALSE,FALSE,FALSE,FALSE,FALSE,2026-08-26T17:00:00Z,-120.015762,47.838551,1
2608261800,47.838554,-120.015739,9,10764,58,NA,2,27.5,42,972.9,NA,28,0.8,324,14.4,0,Smoke RMK 112 (Smoke #11),ESAM,FALSE,NA,FALSE,FALSE,FALSE,FALSE,FALSE,FALSE,FALSE,FALSE,FALSE,2026-08-26T18:00:00Z,-120.015762,47.838551,1
2608261900,47.838554,-120.015739,9,10764,61,NA,2,29.1,39,972.3,NA,25,1.1,314,14.4,0,Smoke RMK 112 (Smoke #11),ESAM,FALSE,NA,FALSE,FALSE,FALSE,FALSE,FALSE,FALSE,FALSE,FALSE,FALSE,2026-08-26T19:00:00Z,-120.015762,47.838551,1
2608262000,47.838554,-120.015739,9,10764,66,NA,2,29.2,38,971.5,NA,24,1.3,322,14.4,0,Smoke RMK 112 (Smoke #11),ESAM,FALSE,NA,FALSE,FALSE,FALSE,FALSE,FALSE,FALSE,FALSE,FALSE,FALSE,2026-08-26T20:00:00Z,-120.015762,47.838551,1
2608262100,47.838554,-120.015739,9,10764,71,NA,2,31.7,33,970.6,NA,20,1.3,324,14.4,0,Smoke RMK 112 (Smoke #11),ESAM,FALSE,NA,FALSE,FALSE,FALSE,FALSE,FALSE,FALSE,FALSE,FALSE,FALSE,2026-08-26T21:00:00Z,-120.015762,47.838551,1
2608262200,47.838554,-120.015739,9,10764,44,NA,2,33.3,28,969.8,NA,16,1.3,330,14.5,0.7,Smoke RMK 112 (Smoke #11),ESAM,FALSE,NA,FALSE,FALSE,FALSE,FALSE,FALSE,FALSE,FALSE,FALSE,FALSE,2026-08-26T22:00:00Z,-120.015762,47.838551,1
2608262300,47.838554,-120.015739,9,10764,26,NA,2,36.2,24,969,NA,13,1.5,22,14.5,2,Smoke RMK 112 (Smoke #11),ESAM,FALSE,NA,FALSE,FALSE,FALSE,FALSE,FALSE,FALSE,FALSE,FALSE,FALSE,2026-08-26T23:00:00Z,-120.015762,47.838551,1
2608270000,47.838554,-120.015739,9,10764,33,NA,2,36.8,22,968.5,NA,12,1.3,37,14.5,1.7,Smoke RMK 112 (Smoke #11),ESAM,FALSE,NA,FALSE,FALSE,FALSE,FALSE,FALSE,FALSE,FALSE,FALSE,FALSE,2026-08-27T00:00:00Z,-120.015762,47.838551,1
2608270100,47.838554,-120.015739,9,10764,31,NA,2,37.1,22,968.3,NA,13,2,89,14.5,0.6,Smoke RMK 112 (Smoke #11),ESAM,FALSE,NA,FALSE,FALSE,FALSE,FALSE,FALSE,FALSE,FALSE,FALSE,FALSE,2026-08-27T01:00:00Z,-120.015762,47.838551,1
2608270200,47.838554,-120.015739,9,10764,25,NA,2,34.4,28,968.6,NA,16,1.3,335,14.4,0.1,Smoke RMK 112 (Smoke #11),ESAM,FALSE,NA,FALSE,FALSE,FALSE,FALSE,FALSE,FALSE,FALSE,FALSE,FALSE,2026-08-27T02:00:00Z,-120.015762,47.838551,1
2608270300,47.838554,-120.015739,9,10764,52,NA,2,31.3,33,969,NA,21,1.1,327,14.4,0,Smoke RMK 112 (Smoke #11),ESAM,FALSE,NA,FALSE,FALSE,FALSE,FALSE,FALSE,FALSE,FALSE,FALSE,FALSE,2026-08-27T03:00:00Z,-120.015762,47.838551,1
2608270400,47.838554,-120.015739,9,10764,141,NA,2,30.9,26,969.8,NA,17,1.2,337,14.4,0,Smoke RMK 112 (Smoke #11),ESAM,FALSE,NA,FALSE,FALSE,FALSE,FALSE,FALSE,FALSE,FALSE,FALSE,FALSE,2026-08-27T04:00:00Z,-120.015762,47.838551,1
2608270500,47.838554,-120.015739,9,10764,145,NA,2,28.7,34,970.3,NA,25,0.7,348,14.4,0,Smoke RMK 112 (Smoke #11),ESAM,FALSE,NA,FALSE,FALSE,FALSE,FALSE,FALSE,FALSE,FALSE,FALSE,FALSE,2026-08-27T05:00:00Z,-120.015762,47.838551,1
2608270600,47.838554,-120.015739,9,10764,106,NA,2,27.7,35,970.2,NA,27,1,334,14.4,0,Smoke RMK 112 (Smoke #11),ESAM,FALSE,NA,FALSE,FALSE,FALSE,FALSE,FALSE,FALSE,FALSE,FALSE,FALSE,2026-08-27T06:00:00Z,-120.015762,47.838551,1
2608270700,47.838554,-120.015739,9,10764,31,NA,2,27.9,31,970.6,NA,24,1.1,345,14.4,0,Smoke RMK 112 (Smoke #11),ESAM,FALSE,NA,FALSE,FALSE,FALSE,FALSE,FALSE,FALSE,FALSE,FALSE,FALSE,2026-08-27T07:00:00Z,-120.015762,47.838551,1
2608270800,47.838554,-120.015739,9,10764,54,NA,2,26.4,39,971.1,NA,31,0.9,336,14.4,0,Smoke RMK 112 (Smoke #11),ESAM,FALSE,NA,FALSE,FALSE,FALSE,FALSE,FALSE,FALSE,FALSE,FALSE,FALSE,2026-08-27T08:00:00Z,-120.015762,47.838551,1
2608270900,47.838554,-120.015739,9,10764,85,NA,2,24.8,45,971.5,NA,36,0.8,352,14.4,0,Smoke RMK 112 (Smoke #11),ESAM,FALSE,NA,FALSE,FALSE,FALSE,FALSE,FALSE,FALSE,FALSE,FALSE,FALSE,2026-08-27T09:00:00Z,-120.015762,47.838551,1
2608271000,47.838554,-120.015739,9,10764,61,NA,2,23.4,46,971.7,NA,38,0.6,17,14.4,0,Smoke RMK 112 (Smoke #11),ESAM,FALSE,NA,FALSE,FALSE,FALSE,FALSE,FALSE,FALSE,FALSE,FALSE,FALSE,2026-08-27T10:00:00Z,-120.015762,47.838551,1
2608271100,47.838554,-120.015739,9,10764,44,NA,2,21.6,49,971.8,NA,40,0.4,321,14.4,0,Smoke RMK 112 (Smoke #11),ESAM,FALSE,NA,FALSE,FALSE,FALSE,FALSE,FALSE,FALSE,FALSE,FALSE,FALSE,2026-08-27T11:00:00Z,-120.015762,47.838551,1
2608271200,47.838551,-120.015762,9,10764,35,NA,2,20.8,54,971.8,NA,44,0.5,312,14.4,0,Smoke RMK 112 (Smoke #11),ESAM,FALSE,NA,FALSE,FALSE,FALSE,FALSE,FALSE,FALSE,FALSE,FALSE,FALSE,2026-08-27T12:00:00Z,-120.015762,47.838551,1
2608271300,47.838551,-120.015762,9,10764,38,NA,2,20.9,57,971.9,NA,46,0.5,334,14.4,0,Smoke RMK 112 (Smoke #11),ESAM,FALSE,NA,FALSE,FALSE,FALSE,FALSE,FALSE,FALSE,FALSE,FALSE,FALSE,2026-08-27T13:00:00Z,-120.015762,47.838551,1
2608271400,47.838551,-120.015762,9,10764,30,NA,2,21.5,57,971.9,NA,44,0.6,335,14.4,0,Smoke RMK 112 (Smoke #11),ESAM,FALSE,NA,FALSE,FALSE,FALSE,FALSE,FALSE,FALSE,FALSE,FALSE,FALSE,2026-08-27T14:00:00Z,-120.015762,47.838551,1
2608271500,47.838551,-120.015762,9,10764,29,NA,2,21.9,57,972.2,NA,46,0.5,325,14.4,0,Smoke RMK 112 (Smoke #11),ESAM,FALSE,NA,FALSE,FALSE,FALSE,FALSE,FALSE,FALSE,FALSE,FALSE,FALSE,2026-08-27T15:00:00Z,-120.015762,47.838551,1
2608271600,47.838551,-120.015762,9,10764,35,NA,2,23.1,55,972.3,NA,46,0.6,340,14.4,0,Smoke RMK 112 (Smoke #11),ESAM,FALSE,NA,FALSE,FALSE,FALSE,FALSE,FALSE,FALSE,FALSE,FALSE,FALSE,2026-08-27T16:00:00Z,-120.015762,47.838551,1
2608271700,47.838551,-120.015762,9,10764,33,NA,2,24.2,49,972.3,NA,41,0.8,329,14.4,0,Smoke RMK 112 (Smoke #11),ESAM,FALSE,NA,FALSE,FALSE,FALSE,FALSE,FALSE,FALSE,FALSE,FALSE,FALSE,2026-08-27T17:00:00Z,-120.015762,47.838551,1
2608271800,47.838551,-120.015762,9,10764,37,NA,2,26.2,42,972.2,NA,33,1.2,336,14.4,0,Smoke RMK 112 (Smoke #11),ESAM,FALSE,NA,FALSE,FALSE,FALSE,FALSE,FALSE,FALSE,FALSE,FALSE,FALSE,2026-08-27T18:00:00Z,-120.015762,47.838551,1
2608271900,47.838551,-120.015762,9,10764,21,NA,2,26.5,47,972.1,NA,33,1.1,324,14.4,0,Smoke RMK 112 (Smoke #11),ESAM,FALSE,NA,FALSE,FALSE,FALSE,FALSE,FALSE,FALSE,FALSE,FALSE,FALSE,2026-08-27T19:00:00Z,-120.015762,47.838551,1
2608272000,47.838551,-120.015762,9,10764,43,NA,2,28.2,37,971.9,NA,25,1.2,265,14.4,0,Smoke RMK 112 (Smoke #11),ESAM,FALSE,NA,FALSE,FALSE,FALSE,FALSE,FALSE,FALSE,FALSE,FALSE,FALSE,2026-08-27T20:00:00Z,-120.015762,47.838551,1
2608272100,47.838551,-120.015762,9,10764,21,NA,2,30.4,24,971.8,NA,14,1.7,236,14.4,0,Smoke RMK 112 (Smoke #11),ESAM,FALSE,NA,FALSE,FALSE,FALSE,FALSE,FALSE,FALSE,FALSE,FALSE,FALSE,2026-08-27T21:00:00Z,-120.015762,47.838551,1
2608272200,47.838551,-120.015762,9,10764,35,NA,2,30,26,971.5,NA,15,2.1,304,14.4,0,Smoke RMK 112 (Smoke #11),ESAM,FALSE,NA,FALSE,FALSE,FALSE,FALSE,FALSE,FALSE,FALSE,FALSE,FALSE,2026-08-27T22:00:00Z,-120.015762,47.838551,1
2608272300,47.838551,-120.015762,9,10764,26,NA,2,29.7,26,971.3,NA,15,2.1,241,14.4,0,Smoke RMK 112 (Smoke #11),ESAM,FALSE,NA,FALSE,FALSE,FALSE,FALSE,FALSE,FALSE,FALSE,FALSE,FALSE,2026-08-27T23:00:00Z,-120.015762,47.838551,1
2608280000,47.838551,-120.015762,9,10764,150,NA,2,28.3,30,971.3,NA,19,2.3,345,14.4,0,Smoke RMK 112 (Smoke #11),ESAM,FALSE,NA,FALSE,FALSE,FALSE,FALSE,FALSE,FALSE,FALSE,FALSE,FALSE,2026-08-28T00:00:00Z,-120.015762,47.838551,1
2608280100,47.838551,-120.015762,9,10764,84,NA,2,26.6,34,971.5,NA,23,1.9,21,14.4,0,Smoke RMK 112 (Smoke #11),ESAM,FALSE,NA,FALSE,FALSE,FALSE,FALSE,FALSE,FALSE,FALSE,FALSE,FALSE,2026-08-28T01:00:00Z,-120.015762,47.838551,1
2608280200,47.838551,-120.015762,9,10764,85,NA,2,26.1,33,971.8,NA,24,2.1,159,14.4,0,Smoke RMK 112 (Smoke #11),ESAM,FALSE,NA,FALSE,FALSE,FALSE,FALSE,FALSE,FALSE,FALSE,FALSE,FALSE,2026-08-28T02:00:00Z,-120.015762,47.838551,1
2608280300,47.838551,-120.015762,9,10764,82,NA,2,25.1,34,972.1,NA,25,2.1,161,14.4,0,Smoke RMK 112 (Smoke #11),ESAM,FALSE,NA,FALSE,FALSE,FALSE,FALSE,FALSE,FALSE,FALSE,FALSE,FALSE,2026-08-28T03:00:00Z,-120.015762,47.838551,1
2608280400,47.838551,-120.015762,9,10764,70,NA,2,24.1,35,972.7,NA,28,1.2,348,14.4,0,Smoke RMK 112 (Smoke #11),ESAM,FALSE,NA,FALSE,FALSE,FALSE,FALSE,FALSE,FALSE,FALSE,FALSE,FALSE,2026-08-28T04:00:00Z,-120.015762,47.838551,1
2608280500,47.838551,-120.015762,9,10764,51,NA,2,23.1,39,973,NA,32,0.8,327,14.4,0,Smoke RMK 112 (Smoke #11),ESAM,FALSE,NA,FALSE,FALSE,FALSE,FALSE,FALSE,FALSE,FALSE,FALSE,FALSE,2026-08-28T05:00:00Z,-120.015762,47.838551,1
2608280600,47.838551,-120.015762,9,10764,39,NA,2,21.3,43,973.1,NA,35,0.5,344,14.4,0,Smoke RMK 112 (Smoke #11),ESAM,FALSE,NA,FALSE,FALSE,FALSE,FALSE,FALSE,FALSE,FALSE,FALSE,FALSE,2026-08-28T06:00:00Z,-120.015762,47.838551,1
2608280700,47.838551,-120.015762,9,10764,26,NA,2,21.9,42,973.4,NA,37,0.8,325,14.4,0,Smoke RMK 112 (Smoke #11),ESAM,FALSE,NA,FALSE,FALSE,FALSE,FALSE,FALSE,FALSE,FALSE,FALSE,FALSE,2026-08-28T07:00:00Z,-120.015762,47.838551,1
2608280800,47.838551,-120.015762,9,10764,31,NA,2,22,44,973.7,NA,38,1.2,344,14.4,0,Smoke RMK 112 (Smoke #11),ESAM,FALSE,NA,FALSE,FALSE,FALSE,FALSE,FALSE,FALSE,FALSE,FALSE,FALSE,2026-08-28T08:00:00Z,-120.015762,47.838551,1
2608280900,47.838551,-120.015762,9,10764,51,NA,2,21.1,48,974.1,NA,41,0.6,326,14.4,0,Smoke RMK 112 (Smoke #11),ESAM,FALSE,NA,FALSE,FALSE,FALSE,FALSE,FALSE,FALSE,FALSE,FALSE,FALSE,2026-08-28T09:00:00Z,-120.015762,47.838551,1
2608281000,47.838551,-120.015762,9,10764,58,NA,2,20,55,974.1,NA,46,0.4,306,14.4,0,Smoke RMK 112 (Smoke #11),ESAM,FALSE,NA,FALSE,FALSE,FALSE,FALSE,FALSE,FALSE,FALSE,FALSE,FALSE,2026-08-28T10:00:00Z,-120.015762,47.838551,1
2608281100,47.838551,-120.015762,9,10764,44,NA,2,19.5,55,973.9,NA,46,0.6,336,14.4,0,Smoke RMK 112 (Smoke #11),ESAM,FALSE,NA,FALSE,FALSE,FALSE,FALSE,FALSE,FALSE,FALSE,FALSE,FALSE,2026-08-28T11:00:00Z,-120.015762,47.838551,1
2608281200,47.838596,-120.015724,9,10764,43,NA,2,18.4,59,974.1,NA,47,0.4,330,14.4,0,Smoke RMK 112 (Smoke #11),ESAM,FALSE,NA,FALSE,FALSE,FALSE,FALSE,FALSE,FALSE,FALSE,FALSE,FALSE,2026-08-28T12:00:00Z,-120.015762,47.838551,1
2608281300,47.838596,-120.015724,9,10764,37,NA,2,17.7,60,974.2,NA,48,0.4,330,14.4,0,Smoke RMK 112 (Smoke #11),ESAM,FALSE,NA,FALSE,FALSE,FALSE,FALSE,FALSE,FALSE,FALSE,FALSE,FALSE,2026-08-28T13:00:00Z,-120.015762,47.838551,1
2608281400,47.838596,-120.015724,9,10764,43,NA,2,17.2,62,974.3,NA,48,0.4,346,14.4,0,Smoke RMK 112 (Smoke #11),ESAM,FALSE,NA,FALSE,FALSE,FALSE,FALSE,FALSE,FALSE,FALSE,FALSE,FALSE,2026-08-28T14:00:00Z,-120.015762,47.838551,1
2608281500,47.838596,-120.015724,9,10764,51,NA,2,17.9,62,974.6,NA,48,0.4,28,14.4,0,Smoke RMK 112 (Smoke #11),ESAM,FALSE,NA,FALSE,FALSE,FALSE,FALSE,FALSE,FALSE,FALSE,FALSE,FALSE,2026-08-28T15:00:00Z,-120.015762,47.838551,1
2608281600,47.838596,-120.015724,9,10764,62,NA,2,20.5,53,974.7,NA,43,0.5,63,14.4,0,Smoke RMK 112 (Smoke #11),ESAM,FALSE,NA,FALSE,FALSE,FALSE,FALSE,FALSE,FALSE,FALSE,FALSE,FALSE,2026-08-28T16:00:00Z,-120.015762,47.838551,1
2608281700,47.838596,-120.015724,9,10764,57,NA,2,23,45,974.6,NA,35,0.7,68,14.4,0,Smoke RMK 112 (Smoke #11),ESAM,FALSE,NA,FALSE,FALSE,FALSE,FALSE,FALSE,FALSE,FALSE,FALSE,FALSE,2026-08-28T17:00:00Z,-120.015762,47.838551,1
2608281800,47.838596,-120.015724,9,10764,32,NA,2,23.4,46,974.2,NA,32,0.8,316,14.4,0,Smoke RMK 112 (Smoke #11),ESAM,FALSE,NA,FALSE,FALSE,FALSE,FALSE,FALSE,FALSE,FALSE,FALSE,FALSE,2026-08-28T18:00:00Z,-120.015762,47.838551,1
2608281900,47.838596,-120.015724,9,10764,37,NA,2,25.4,40,973.7,NA,29,0.9,312,14.4,0,Smoke RMK 112 (Smoke #11),ESAM,FALSE,NA,FALSE,FALSE,FALSE,FALSE,FALSE,FALSE,FALSE,FALSE,FALSE,2026-08-28T19:00:00Z,-120.015762,47.838551,1
2608282000,47.838596,-120.015724,9,10764,41,NA,2,26.7,37,972.7,NA,25,1,308,14.4,0,Smoke RMK 112 (Smoke #11),ESAM,FALSE,NA,FALSE,FALSE,FALSE,FALSE,FALSE,FALSE,FALSE,FALSE,FALSE,2026-08-28T20:00:00Z,-120.015762,47.838551,1
2608282100,47.838596,-120.015724,9,10764,42,NA,2,28.5,33,971.9,NA,19,1,331,14.4,0,Smoke RMK 112 (Smoke #11),ESAM,FALSE,NA,FALSE,FALSE,FALSE,FALSE,FALSE,FALSE,FALSE,FALSE,FALSE,2026-08-28T21:00:00Z,-120.015762,47.838551,1
2608282200,47.838596,-120.015724,9,10764,34,NA,2,29.3,31,971,NA,17,1.4,320,14.4,0,Smoke RMK 112 (Smoke #11),ESAM,FALSE,NA,FALSE,FALSE,FALSE,FALSE,FALSE,FALSE,FALSE,FALSE,FALSE,2026-08-28T22:00:00Z,-120.015762,47.838551,1
2608282300,47.838596,-120.015724,9,10764,21,NA,2,30.8,28,970.3,NA,15,1.2,333,14.4,0,Smoke RMK 112 (Smoke #11),ESAM,FALSE,NA,FALSE,FALSE,FALSE,FALSE,FALSE,FALSE,FALSE,FALSE,FALSE,2026-08-28T23:00:00Z,-120.015762,47.838551,1
2608290000,47.838596,-120.015724,9,10764,22,NA,2,30.9,30,969.7,NA,16,1.1,320,14.4,0,Smoke RMK 112 (Smoke #11),ESAM,FALSE,NA,FALSE,FALSE,FALSE,FALSE,FALSE,FALSE,FALSE,FALSE,FALSE,2026-08-29T00:00:00Z,-120.015762,47.838551,1
2608290100,47.838596,-120.015724,9,10764,55,NA,2,28.1,40,969.3,NA,22,1.1,321,14.4,0,Smoke RMK 112 (Smoke #11),ESAM,FALSE,NA,FALSE,FALSE,FALSE,FALSE,FALSE,FALSE,FALSE,FALSE,FALSE,2026-08-29T01:00:00Z,-120.015762,47.838551,1
2608290200,47.838596,-120.015724,9,10764,47,NA,2,27,38,968.9,NA,25,1.1,333,14.4,0,Smoke RMK 112 (Smoke #11),ESAM,FALSE,NA,FALSE,FALSE,FALSE,FALSE,FALSE,FALSE,FALSE,FALSE,FALSE,2026-08-29T02:00:00Z,-120.015762,47.838551,1
2608290300,47.838596,-120.015724,9,10764,52,NA,2,25.5,45,968.9,NA,33,0.9,334,14.4,0,Smoke RMK 112 (Smoke #11),ESAM,FALSE,NA,FALSE,FALSE,FALSE,FALSE,FALSE,FALSE,FALSE,FALSE,FALSE,2026-08-29T03:00:00Z,-120.015762,47.838551,1
2608290400,47.838596,-120.015724,9,10764,44,NA,2,24.4,41,969.1,NA,33,0.7,336,14.4,0,Smoke RMK 112 (Smoke #11),ESAM,FALSE,NA,FALSE,FALSE,FALSE,FALSE,FALSE,FALSE,FALSE,FALSE,FALSE,2026-08-29T04:00:00Z,-120.015762,47.838551,1
2608290500,47.838596,-120.015724,9,10764,29,NA,2,24.1,41,969.5,NA,34,1,334,14.4,0,Smoke RMK 112 (Smoke #11),ESAM,FALSE,NA,FALSE,FALSE,FALSE,FALSE,FALSE,FALSE,FALSE,FALSE,FALSE,2026-08-29T05:00:00Z,-120.015762,47.838551,1
2608290600,47.838596,-120.015724,9,10764,50,NA,2,23.7,40,969.4,NA,33,1.1,347,14.4,0,Smoke RMK 112 (Smoke #11),ESAM,FALSE,NA,FALSE,FALSE,FALSE,FALSE,FALSE,FALSE,FALSE,FALSE,FALSE,2026-08-29T06:00:00Z,-120.015762,47.838551,1
2608290700,47.838596,-120.015724,9,10764,47,NA,2,22.9,43,969.4,NA,36,1.2,331,14.4,0,Smoke RMK 112 (Smoke #11),ESAM,FALSE,NA,FALSE,FALSE,FALSE,FALSE,FALSE,FALSE,FALSE,FALSE,FALSE,2026-08-29T07:00:00Z,-120.015762,47.838551,1
2608290800,47.838596,-120.015724,9,10764,53,NA,2,22.1,44,969.5,NA,37,0.9,336,14.4,0,Smoke RMK 112 (Smoke #11),ESAM,FALSE,NA,FALSE,FALSE,FALSE,FALSE,FALSE,FALSE,FALSE,FALSE,FALSE,2026-08-29T08:00:00Z,-120.015762,47.838551,1
2608290900,47.838596,-120.015724,9,10764,67,NA,2,21.9,44,969.5,NA,38,0.9,332,14.4,0,Smoke RMK 112 (Smoke #11),ESAM,FALSE,NA,FALSE,FALSE,FALSE,FALSE,FALSE,FALSE,FALSE,FALSE,FALSE,2026-08-29T09:00:00Z,-120.015762,47.838551,1
2608291000,47.838596,-120.015724,9,10764,73,NA,2,21.2,47,969.4,NA,40,1.1,342,14.4,0,Smoke RMK 112 (Smoke #11),ESAM,FALSE,NA,FALSE,FALSE,FALSE,FALSE,FALSE,FALSE,FALSE,FALSE,FALSE,2026-08-29T10:00:00Z,-120.015762,47.838551,1
2608291100,47.838558,-120.015778,9,10764,87,NA,2,20.5,50,969.1,NA,44,1,341,14.4,0,Smoke RMK 112 (Smoke #11),ESAM,FALSE,NA,FALSE,FALSE,FALSE,FALSE,FALSE,FALSE,FALSE,FALSE,FALSE,2026-08-29T11:00:00Z,-120.015762,47.838551,1
2608291200,47.838558,-120.015778,9,10764,89,NA,2,19.5,55,969,NA,46,0.4,324,14.4,0,Smoke RMK 112 (Smoke #11),ESAM,FALSE,NA,FALSE,FALSE,FALSE,FALSE,FALSE,FALSE,FALSE,FALSE,FALSE,2026-08-29T12:00:00Z,-120.015762,47.838551,1
2608291300,47.838558,-120.015778,9,10764,73,NA,2,19.9,52,968.9,NA,45,0.6,281,14.4,0,Smoke RMK 112 (Smoke #11),ESAM,FALSE,NA,FALSE,FALSE,FALSE,FALSE,FALSE,FALSE,FALSE,FALSE,FALSE,2026-08-29T13:00:00Z,-120.015762,47.838551,1
2608291400,47.838558,-120.015778,9,10764,66,NA,2,20.6,47,968.9,NA,41,1,335,14.4,0,Smoke RMK 112 (Smoke #11),ESAM,FALSE,NA,FALSE,FALSE,FALSE,FALSE,FALSE,FALSE,FALSE,FALSE,FALSE,2026-08-29T14:00:00Z,-120.015762,47.838551,1
2608291500,47.838558,-120.015778,9,10764,62,NA,2,20.7,48,969,NA,42,0.9,344,14.4,0,Smoke RMK 112 (Smoke #11),ESAM,FALSE,NA,FALSE,FALSE,FALSE,FALSE,FALSE,FALSE,FALSE,FALSE,FALSE,2026-08-29T15:00:00Z,-120.015762,47.838551,1
2608291600,47.838558,-120.015778,9,10764,56,NA,2,21.5,44,969.3,NA,37,1.2,315,14.4,0,Smoke RMK 112 (Smoke #11),ESAM,FALSE,NA,FALSE,FALSE,FALSE,FALSE,FALSE,FALSE,FALSE,FALSE,FALSE,2026-08-29T16:00:00Z,-120.015762,47.838551,1
2608291700,47.838558,-120.015778,9,10764,47,NA,2,21.6,44,969.7,NA,35,1.7,329,14.4,0,Smoke RMK 112 (Smoke #11),ESAM,FALSE,NA,FALSE,FALSE,FALSE,FALSE,FALSE,FALSE,FALSE,FALSE,FALSE,2026-08-29T17:00:00Z,-120.015762,47.838551,1
2608291800,47.838558,-120.015778,9,10764,34,NA,2,18.8,56,970.6,NA,42,2,327,14.4,0,Smoke RMK 112 (Smoke #11),ESAM,FALSE,NA,FALSE,FALSE,FALSE,FALSE,FALSE,FALSE,FALSE,FALSE,FALSE,2026-08-29T18:00:00Z,-120.015762,47.838551,1
2608291900,47.838558,-120.015778,9,10764,22,NA,2,15.8,75,971.8,NA,49,1.3,88,14.3,0,Smoke RMK 112 (Smoke #11),ESAM,FALSE,NA,FALSE,FALSE,FALSE,FALSE,FALSE,FALSE,FALSE,FALSE,FALSE,2026-08-29T19:00:00Z,-120.015762,47.838551,1
2608292000,47.838558,-120.015778,9,10764,12,NA,2,17.5,65,972.1,NA,47,1.6,100,14.3,0,Smoke RMK 112 (Smoke #11),ESAM,FALSE,NA,FALSE,FALSE,FALSE,FALSE,FALSE,FALSE,FALSE,FALSE,FALSE,2026-08-29T20:00:00Z,-120.015762,47.838551,1
2608292100,47.838558,-120.015778,9,10764,11,NA,2,19.3,60,972.2,NA,45,1.9,108,14.4,0,Smoke RMK 112 (Smoke #11),ESAM,FALSE,NA,FALSE,FALSE,FALSE,FALSE,FALSE,FALSE,FALSE,FALSE,FALSE,2026-08-29T21:00:00Z,-120.015762,47.838551,1
2608292200,47.838558,-120.015778,9,10764,12,NA,2,20.9,51,972.7,NA,39,0.9,85,14.4,0,Smoke RMK 112 (Smoke #11),ESAM,FALSE,NA,FALSE,FALSE,FALSE,FALSE,FALSE,FALSE,FALSE,FALSE,FALSE,2026-08-29T22:00:00Z,-120.015762,47.838551,1
2608292300,47.838558,-120.015778,9,10764,10,NA,2,21.3,50,972.9,NA,37,1.8,108,14.4,0,Smoke RMK 112 (Smoke #11),ESAM,FALSE,NA,FALSE,FALSE,FALSE,FALSE,FALSE,FALSE,FALSE,FALSE,FALSE,2026-08-29T23:00:00Z,-120.015762,47.838551,1
2608300000,47.838558,-120.015778,9,10764,8,NA,1.8,22.2,47,972.6,NA,34,1.4,116,14.4,0,Smoke RMK 112 (Smoke #11),ESAM,TRUE,badFlow,FALSE,FALSE,FALSE,TRUE,FALSE,FALSE,FALSE,FALSE,FALSE,2026-08-30T00:00:00Z,-120.015762,47.838551,1
2608300100,47.838558,-120.015778,9,10764,10,NA,2,22.6,48,973,NA,33,1.7,112,14.4,0,Smoke RMK 112 (Smoke #11),ESAM,FALSE,NA,FALSE,FALSE,FALSE,FALSE,FALSE,FALSE,FALSE,FALSE,FALSE,2026-08-30T01:00:00Z,-120.015762,47.838551,1
2608300200,47.838558,-120.015778,9,10764,8,NA,2,21.3,49,973.5,NA,34,1.6,111,14.4,0,Smoke RMK 112 (Smoke #11),ESAM,FALSE,NA,FALSE,FALSE,FALSE,FALSE,FALSE,FALSE,FALSE,FALSE,FALSE,2026-08-30T02:00:00Z,-120.015762,47.838551,1
2608300300,47.838558,-120.015778,9,10764,9,NA,2,19.3,58,974.2,NA,44,1.6,113,14.4,0,Smoke RMK 112 (Smoke #11),ESAM,FALSE,NA,FALSE,FALSE,FALSE,FALSE,FALSE,FALSE,FALSE,FALSE,FALSE,2026-08-30T03:00:00Z,-120.015762,47.838551,1
2608300400,47.838558,-120.015778,9,10764,9,NA,2,18.1,63,974.7,NA,48,0.7,75,14.4,0,Smoke RMK 112 (Smoke #11),ESAM,FALSE,NA,FALSE,FALSE,FALSE,FALSE,FALSE,FALSE,FALSE,FALSE,FALSE,2026-08-30T04:00:00Z,-120.015762,47.838551,1
2608300500,47.838558,-120.015778,9,10764,9,NA,2,17,67,975,NA,48,0.4,357,14.3,0,Smoke RMK 112 (Smoke #11),ESAM,FALSE,NA,FALSE,FALSE,FALSE,FALSE,FALSE,FALSE,FALSE,FALSE,FALSE,2026-08-30T05:00:00Z,-120.015762,47.838551,1
2608300600,47.838558,-120.015778,9,10764,15,NA,2,15.9,67,975.1,NA,48,0.6,346,14.3,0,Smoke RMK 112 (Smoke #11),ESAM,FALSE,NA,FALSE,FALSE,FALSE,FALSE,FALSE,FALSE,FALSE,FALSE,FALSE,2026-08-30T06:00:00Z,-120.015762,47.838551,1
2608300700,47.838558,-120.015778,9,10764,21,NA,2,15.2,62,975.1,NA,47,0.6,335,14.4,3.1,Smoke RMK 112 (Smoke #11),ESAM,FALSE,NA,FALSE,FALSE,FALSE,FALSE,FALSE,FALSE,FALSE,FALSE,FALSE,2026-08-30T07:00:00Z,-120.015762,47.838551,1
2608300800,47.838558,-120.015778,9,10764,21,NA,2,15.2,60,975.1,NA,47,0.6,2,14.3,0,Smoke RMK 112 (Smoke #11),ESAM,FALSE,NA,FALSE,FALSE,FALSE,FALSE,FALSE,FALSE,FALSE,FALSE,FALSE,2026-08-30T08:00:00Z,-120.015762,47.838551,1
2608300900,47.838558,-120.015778,9,10764,23,NA,2,14.8,60,975.3,NA,47,0.6,331,14.3,0,Smoke RMK 112 (Smoke #11),ESAM,FALSE,NA,FALSE,FALSE,FALSE,FALSE,FALSE,FALSE,FALSE,FALSE,FALSE,2026-08-30T09:00:00Z,-120.015762,47.838551,1
2608301000,47.838558,-120.015778,9,10764,23,NA,2,14.4,61,975.4,NA,48,0.6,349,14.3,0,Smoke RMK 112 (Smoke #11),ESAM,FALSE,NA,FALSE,FALSE,FALSE,FALSE,FALSE,FALSE,FALSE,FALSE,FALSE,2026-08-30T10:00:00Z,-120.015762,47.838551,1
2608301100,47.838566,-120.015755,9,10764,22,NA,2,13.2,68,975.4,NA,48,0.5,323,14.3,0,Smoke RMK 112 (Smoke #11),ESAM,FALSE,NA,FALSE,FALSE,FALSE,FALSE,FALSE,FALSE,FALSE,FALSE,FALSE,2026-08-30T11:00:00Z,-120.015762,47.838551,1
2608301200,47.838566,-120.015755,9,10764,23,NA,2,13.5,66,975.5,NA,48,0.6,350,14.3,0,Smoke RMK 112 (Smoke #11),ESAM,FALSE,NA,FALSE,FALSE,FALSE,FALSE,FALSE,FALSE,FALSE,FALSE,FALSE,2026-08-30T12:00:00Z,-120.015762,47.838551,1
2608301300,47.838566,-120.015755,9,10764,25,NA,2,12.8,68,975.7,NA,48,0.5,1,14.3,0,Smoke RMK 112 (Smoke #11),ESAM,FALSE,NA,FALSE,FALSE,FALSE,FALSE,FALSE,FALSE,FALSE,FALSE,FALSE,2026-08-30T13:00:00Z,-120.015762,47.838551,1
2608301400,47.838566,-120.015755,9,10764,28,NA,2,12.7,68,975.9,NA,48,0.4,341,14.3,0,Smoke RMK 112 (Smoke #11),ESAM,FALSE,NA,FALSE,FALSE,FALSE,FALSE,FALSE,FALSE,FALSE,FALSE,FALSE,2026-08-30T14:00:00Z,-120.015762,47.838551,1
2608301500,47.838566,-120.015755,9,10764,32,NA,2,14.8,61,976.2,NA,48,0.4,29,14.3,0,Smoke RMK 112 (Smoke #11),ESAM,FALSE,NA,FALSE,FALSE,FALSE,FALSE,FALSE,FALSE,FALSE,FALSE,FALSE,2026-08-30T15:00:00Z,-120.015762,47.838551,1
2608301600,47.838566,-120.015755,9,10764,37,NA,2,17.9,54,976.2,NA,44,0.4,31,14.4,0,Smoke RMK 112 (Smoke #11),ESAM,FALSE,NA,FALSE,FALSE,FALSE,FALSE,FALSE,FALSE,FALSE,FALSE,FALSE,2026-08-30T16:00:00Z,-120.015762,47.838551,1
2608301700,47.838566,-120.015755,9,10764,39,NA,2,20.2,47,975.9,NA,37,0.9,309,14.4,0,Smoke RMK 112 (Smoke #11),ESAM,FALSE,NA,FALSE,FALSE,FALSE,FALSE,FALSE,FALSE,FALSE,FALSE,FALSE,2026-08-30T17:00:00Z,-120.015762,47.838551,1
2608301800,47.838566,-120.015755,9,10764,34,NA,2,20.7,44,976.1,NA,31,1,311,14.4,0,Smoke RMK 112 (Smoke #11),ESAM,FALSE,NA,FALSE,FALSE,FALSE,FALSE,FALSE,FALSE,FALSE,FALSE,FALSE,2026-08-30T18:00:00Z,-120.015762,47.838551,1
2608301900,47.838566,-120.015755,9,10764,33,NA,2,22.8,38,976.1,NA,28,0.9,297,14.4,0,Smoke RMK 112 (Smoke #11),ESAM,FALSE,NA,FALSE,FALSE,FALSE,FALSE,FALSE,FALSE,FALSE,FALSE,FALSE,2026-08-30T19:00:00Z,-120.015762,47.838551,1
2608302000,47.838566,-120.015755,9,10764,26,NA,2,24.4,34,975.7,NA,22,0.9,325,14.4,0,Smoke RMK 112 (Smoke #11),ESAM,FALSE,NA,FALSE,FALSE,FALSE,FALSE,FALSE,FALSE,FALSE,FALSE,FALSE,2026-08-30T20:00:00Z,-120.015762,47.838551,1
2608302100,47.838566,-120.015755,9,10764,19,NA,2,26.3,29,975.3,NA,17,1.1,83,14.4,0,Smoke RMK 112 (Smoke #11),ESAM,FALSE,NA,FALSE,FALSE,FALSE,FALSE,FALSE,FALSE,FALSE,FALSE,FALSE,2026-08-30T21:00:00Z,-120.015762,47.838551,1
2608302200,47.838566,-120.015755,9,10764,34,NA,2,27.2,28,974.7,NA,15,1.1,46,14.4,0,Smoke RMK 112 (Smoke #11),ESAM,FALSE,NA,FALSE,FALSE,FALSE,FALSE,FALSE,FALSE,FALSE,FALSE,FALSE,2026-08-30T22:00:00Z,-120.015762,47.838551,1
2608302300,47.838566,-120.015755,9,10764,38,NA,2,28.3,28,974.1,NA,15,0.8,345,14.4,0,Smoke RMK 112 (Smoke #11),ESAM,FALSE,NA,FALSE,FALSE,FALSE,FALSE,FALSE,FALSE,FALSE,FALSE,FALSE,2026-08-30T23:00:00Z,-120.015762,47.838551,1

Monitor Smoke RMK 112 (Smoke #11), has 1 unique location(s)

Location

  • Blue circles - GPS locations
  • Red circle - clustered location

QC Parameters and Thresholds for an ESAM monitor

Raw PM2.5 Data and QC Removal

Raw CO data (if available)

Raw PM2.5 and Atmospheric Variables

Pollution Rose

Currently disabled.

Additional Functionality

Please contact Jonathan Callahan or Gina Wing if you have ideas for additional functionality.